sensor_id;sensor_type;location;lat;lon;timestamp;pressure;altitude;pressure_sealevel;temperature;humidity
61769;BME280;47669;48.712;9.016;2023-09-07T00:01:24;96968.94;;;12.97;88.54
61769;BME280;47669;48.712;9.016;2023-09-07T00:03:50;96974.00;;;12.74;88.45
61769;BME280;47669;48.712;9.016;2023-09-07T00:06:15;96970.94;;;12.77;88.15
61769;BME280;47669;48.712;9.016;2023-09-07T00:08:40;96971.91;;;12.82;88.28
61769;BME280;47669;48.712;9.016;2023-09-07T00:11:06;96973.53;;;12.83;87.84
61769;BME280;47669;48.712;9.016;2023-09-07T00:13:33;96976.53;;;12.62;88.94
61769;BME280;47669;48.712;9.016;2023-09-07T00:15:59;96973.03;;;12.68;89.32
61769;BME280;47669;48.712;9.016;2023-09-07T00:18:25;96976.03;;;13.03;87.70
61769;BME280;47669;48.712;9.016;2023-09-07T00:20:51;96958.97;;;12.93;87.88
61769;BME280;47669;48.712;9.016;2023-09-07T00:23:16;96965.78;;;12.82;87.08
61769;BME280;47669;48.712;9.016;2023-09-07T00:25:41;96967.84;;;12.80;87.94
61769;BME280;47669;48.712;9.016;2023-09-07T00:28:07;96967.38;;;12.58;89.39
61769;BME280;47669;48.712;9.016;2023-09-07T00:30:32;96973.78;;;12.75;88.46
61769;BME280;47669;48.712;9.016;2023-09-07T00:32:57;96972.69;;;12.58;88.30
61769;BME280;47669;48.712;9.016;2023-09-07T00:35:22;96971.00;;;12.63;88.13
61769;BME280;47669;48.712;9.016;2023-09-07T00:37:48;96970.44;;;12.55;88.38
61769;BME280;47669;48.712;9.016;2023-09-07T00:40:13;96967.06;;;12.41;89.39
61769;BME280;47669;48.712;9.016;2023-09-07T00:42:38;96967.03;;;12.48;88.81
61769;BME280;47669;48.712;9.016;2023-09-07T00:45:04;96966.84;;;12.36;89.80
61769;BME280;47669;48.712;9.016;2023-09-07T00:47:30;96961.38;;;12.31;89.77
61769;BME280;47669;48.712;9.016;2023-09-07T00:49:55;96961.19;;;12.32;90.63
61769;BME280;47669;48.712;9.016;2023-09-07T00:52:21;96958.53;;;12.32;89.15
61769;BME280;47669;48.712;9.016;2023-09-07T00:54:46;96955.28;;;12.30;89.98
61769;BME280;47669;48.712;9.016;2023-09-07T00:57:12;96959.66;;;12.11;89.87
61769;BME280;47669;48.712;9.016;2023-09-07T00:59:37;96958.38;;;12.20;89.75
61769;BME280;47669;48.712;9.016;2023-09-07T01:02:02;96959.00;;;12.16;90.19
61769;BME280;47669;48.712;9.016;2023-09-07T01:04:30;96960.81;;;12.22;89.44
61769;BME280;47669;48.712;9.016;2023-09-07T01:06:57;96957.84;;;12.05;91.28
61769;BME280;47669;48.712;9.016;2023-09-07T01:09:26;96962.94;;;12.07;90.27
61769;BME280;47669;48.712;9.016;2023-09-07T01:11:53;96953.28;;;12.26;89.75
61769;BME280;47669;48.712;9.016;2023-09-07T01:14:18;96951.72;;;12.05;91.57
61769;BME280;47669;48.712;9.016;2023-09-07T01:16:44;96956.63;;;12.01;91.44
61769;BME280;47669;48.712;9.016;2023-09-07T01:19:10;96955.81;;;12.00;91.24
61769;BME280;47669;48.712;9.016;2023-09-07T01:21:37;96955.22;;;11.98;90.53
61769;BME280;47669;48.712;9.016;2023-09-07T01:24:08;96955.75;;;12.14;89.94
61769;BME280;47669;48.712;9.016;2023-09-07T01:26:34;96957.63;;;12.00;88.68
61769;BME280;47669;48.712;9.016;2023-09-07T01:29:00;96956.66;;;11.94;89.26
61769;BME280;47669;48.712;9.016;2023-09-07T01:31:26;96961.50;;;11.97;89.24
61769;BME280;47669;48.712;9.016;2023-09-07T01:33:51;96955.59;;;12.02;90.58
61769;BME280;47669;48.712;9.016;2023-09-07T01:36:16;96951.97;;;11.96;90.74
61769;BME280;47669;48.712;9.016;2023-09-07T01:38:42;96953.63;;;11.77;91.51
61769;BME280;47669;48.712;9.016;2023-09-07T01:41:07;96950.16;;;11.77;90.33
61769;BME280;47669;48.712;9.016;2023-09-07T01:43:33;96955.44;;;11.70;90.04
61769;BME280;47669;48.712;9.016;2023-09-07T01:45:58;96954.84;;;11.68;91.64
61769;BME280;47669;48.712;9.016;2023-09-07T01:48:23;96954.25;;;11.73;91.83
61769;BME280;47669;48.712;9.016;2023-09-07T01:50:53;96954.41;;;11.78;91.89
61769;BME280;47669;48.712;9.016;2023-09-07T01:53:18;96955.00;;;11.87;91.34
61769;BME280;47669;48.712;9.016;2023-09-07T01:55:44;96954.81;;;11.81;90.50
61769;BME280;47669;48.712;9.016;2023-09-07T01:58:09;96952.38;;;11.80;90.73
61769;BME280;47669;48.712;9.016;2023-09-07T02:00:39;96958.91;;;11.77;90.58
61769;BME280;47669;48.712;9.016;2023-09-07T02:03:05;96954.63;;;11.76;90.04
61769;BME280;47669;48.712;9.016;2023-09-07T02:05:31;96955.44;;;11.77;90.15
61769;BME280;47669;48.712;9.016;2023-09-07T02:07:58;96962.16;;;11.79;89.75
61769;BME280;47669;48.712;9.016;2023-09-07T02:10:23;96961.97;;;11.68;90.58
61769;BME280;47669;48.712;9.016;2023-09-07T02:12:48;96961.56;;;11.77;90.49
61769;BME280;47669;48.712;9.016;2023-09-07T02:15:14;96965.59;;;11.87;89.68
61769;BME280;47669;48.712;9.016;2023-09-07T02:17:39;96956.06;;;11.66;89.45
61769;BME280;47669;48.712;9.016;2023-09-07T02:20:05;96954.25;;;11.59;90.77
61769;BME280;47669;48.712;9.016;2023-09-07T02:22:35;96949.53;;;11.68;90.60
61769;BME280;47669;48.712;9.016;2023-09-07T02:25:00;96945.91;;;11.49;91.68
61769;BME280;47669;48.712;9.016;2023-09-07T02:27:26;96945.28;;;11.67;90.69
61769;BME280;47669;48.712;9.016;2023-09-07T02:29:51;96943.06;;;11.64;90.29
61769;BME280;47669;48.712;9.016;2023-09-07T02:32:16;96945.13;;;11.35;91.62
61769;BME280;47669;48.712;9.016;2023-09-07T02:34:42;96949.22;;;11.31;92.90
61769;BME280;47669;48.712;9.016;2023-09-07T02:37:08;96943.72;;;11.39;91.36
61769;BME280;47669;48.712;9.016;2023-09-07T02:39:33;96943.28;;;11.43;91.66
61769;BME280;47669;48.712;9.016;2023-09-07T02:41:59;96942.69;;;11.34;91.25
61769;BME280;47669;48.712;9.016;2023-09-07T02:44:24;96943.91;;;11.31;91.59
61769;BME280;47669;48.712;9.016;2023-09-07T02:46:49;96940.03;;;11.34;91.93
61769;BME280;47669;48.712;9.016;2023-09-07T02:49:14;96944.34;;;11.35;91.18
61769;BME280;47669;48.712;9.016;2023-09-07T02:51:40;96941.88;;;11.40;90.44
61769;BME280;47669;48.712;9.016;2023-09-07T02:54:05;96949.03;;;11.26;91.91
61769;BME280;47669;48.712;9.016;2023-09-07T02:56:31;96950.22;;;11.44;90.72
61769;BME280;47669;48.712;9.016;2023-09-07T02:58:56;96945.13;;;11.35;90.43
61769;BME280;47669;48.712;9.016;2023-09-07T03:01:22;96947.34;;;11.38;90.27
61769;BME280;47669;48.712;9.016;2023-09-07T03:03:47;96942.47;;;11.42;90.29
61769;BME280;47669;48.712;9.016;2023-09-07T03:06:14;96941.25;;;11.38;91.06
61769;BME280;47669;48.712;9.016;2023-09-07T03:08:42;96943.09;;;11.37;91.29
61769;BME280;47669;48.712;9.016;2023-09-07T03:11:08;96937.38;;;11.40;91.16
61769;BME280;47669;48.712;9.016;2023-09-07T03:13:33;96936.78;;;11.38;92.55
61769;BME280;47669;48.712;9.016;2023-09-07T03:15:59;96936.41;;;11.28;92.61
61769;BME280;47669;48.712;9.016;2023-09-07T03:18:25;96942.09;;;11.25;93.32
61769;BME280;47669;48.712;9.016;2023-09-07T03:20:53;96938.22;;;11.28;93.15
61769;BME280;47669;48.712;9.016;2023-09-07T03:23:18;96934.97;;;11.26;92.80
61769;BME280;47669;48.712;9.016;2023-09-07T03:25:43;96937.81;;;11.31;93.01
61769;BME280;47669;48.712;9.016;2023-09-07T03:28:09;96934.78;;;11.20;92.13
61769;BME280;47669;48.712;9.016;2023-09-07T03:30:34;96942.09;;;11.05;92.85
61769;BME280;47669;48.712;9.016;2023-09-07T03:32:59;96932.72;;;10.96;92.52
61769;BME280;47669;48.712;9.016;2023-09-07T03:35:24;96937.22;;;10.89;93.93
61769;BME280;47669;48.712;9.016;2023-09-07T03:37:50;96934.97;;;10.99;92.14
61769;BME280;47669;48.712;9.016;2023-09-07T03:40:15;96934.97;;;11.12;91.34
61769;BME280;47669;48.712;9.016;2023-09-07T03:42:40;96930.91;;;11.16;91.04
61769;BME280;47669;48.712;9.016;2023-09-07T03:45:06;96928.06;;;11.05;90.53
61769;BME280;47669;48.712;9.016;2023-09-07T03:47:32;96933.16;;;10.99;92.35
61769;BME280;47669;48.712;9.016;2023-09-07T03:49:57;96928.06;;;10.98;92.82
61769;BME280;47669;48.712;9.016;2023-09-07T03:52:24;96928.88;;;10.92;91.86
61769;BME280;47669;48.712;9.016;2023-09-07T03:54:51;96935.38;;;10.96;91.09
61769;BME280;47669;48.712;9.016;2023-09-07T03:57:19;96931.69;;;10.84;92.08
61769;BME280;47669;48.712;9.016;2023-09-07T03:59:45;96934.97;;;10.79;92.18
61769;BME280;47669;48.712;9.016;2023-09-07T04:02:10;96930.91;;;10.76;92.58
61769;BME280;47669;48.712;9.016;2023-09-07T04:04:35;96925.84;;;10.88;91.63
61769;BME280;47669;48.712;9.016;2023-09-07T04:07:00;96930.28;;;10.81;91.10
61769;BME280;47669;48.712;9.016;2023-09-07T04:09:26;96928.44;;;10.68;92.98
61769;BME280;47669;48.712;9.016;2023-09-07T04:11:51;96929.28;;;10.82;91.51
61769;BME280;47669;48.712;9.016;2023-09-07T04:14:16;96930.28;;;10.88;91.53
61769;BME280;47669;48.712;9.016;2023-09-07T04:16:42;96928.47;;;10.95;91.18
61769;BME280;47669;48.712;9.016;2023-09-07T04:19:07;96930.50;;;10.99;90.83
61769;BME280;47669;48.712;9.016;2023-09-07T04:21:32;96930.91;;;10.90;90.52
61769;BME280;47669;48.712;9.016;2023-09-07T04:23:58;96932.31;;;10.79;90.91
61769;BME280;47669;48.712;9.016;2023-09-07T04:26:23;96930.88;;;10.63;90.64
61769;BME280;47669;48.712;9.016;2023-09-07T04:28:48;96920.13;;;10.65;91.37
61769;BME280;47669;48.712;9.016;2023-09-07T04:31:13;96927.63;;;10.81;90.89
61769;BME280;47669;48.712;9.016;2023-09-07T04:33:39;96923.38;;;10.80;90.73
61769;BME280;47669;48.712;9.016;2023-09-07T04:36:11;96918.50;;;10.90;90.60
61769;BME280;47669;48.712;9.016;2023-09-07T04:38:36;96922.97;;;10.90;90.99
61769;BME280;47669;48.712;9.016;2023-09-07T04:41:08;96922.16;;;10.83;90.53
61769;BME280;47669;48.712;9.016;2023-09-07T04:43:33;96923.34;;;10.67;91.12
61769;BME280;47669;48.712;9.016;2023-09-07T04:45:58;96928.63;;;10.53;91.73
61769;BME280;47669;48.712;9.016;2023-09-07T04:48:24;96921.72;;;10.52;91.63
61769;BME280;47669;48.712;9.016;2023-09-07T04:50:57;96921.94;;;10.64;90.67
61769;BME280;47669;48.712;9.016;2023-09-07T04:53:22;96926.00;;;10.60;91.89
61769;BME280;47669;48.712;9.016;2023-09-07T04:55:48;96927.66;;;11.01;91.72
61769;BME280;47669;48.712;9.016;2023-09-07T04:58:13;96926.41;;;11.17;91.18
61769;BME280;47669;48.712;9.016;2023-09-07T05:00:38;96928.06;;;11.18;90.32
61769;BME280;47669;48.712;9.016;2023-09-07T05:03:04;96934.38;;;11.10;91.48
61769;BME280;47669;48.712;9.016;2023-09-07T05:05:29;96938.63;;;10.98;91.14
61769;BME280;47669;48.712;9.016;2023-09-07T05:07:54;96934.16;;;11.25;92.29
61769;BME280;47669;48.712;9.016;2023-09-07T05:10:19;96932.94;;;11.01;91.28
61769;BME280;47669;48.712;9.016;2023-09-07T05:12:45;96941.31;;;11.11;91.13
61769;BME280;47669;48.712;9.016;2023-09-07T05:15:10;96938.44;;;10.86;91.97
61769;BME280;47669;48.712;9.016;2023-09-07T05:17:35;96930.28;;;10.88;93.17
61769;BME280;47669;48.712;9.016;2023-09-07T05:20:01;96937.03;;;10.90;92.15
61769;BME280;47669;48.712;9.016;2023-09-07T05:22:26;96933.56;;;11.10;91.16
61769;BME280;47669;48.712;9.016;2023-09-07T05:24:51;96941.50;;;11.10;90.29
61769;BME280;47669;48.712;9.016;2023-09-07T05:27:17;96946.97;;;10.95;90.99
61769;BME280;47669;48.712;9.016;2023-09-07T05:29:45;96945.97;;;11.16;89.78
61769;BME280;47669;48.712;9.016;2023-09-07T05:32:10;96950.63;;;11.40;89.12
61769;BME280;47669;48.712;9.016;2023-09-07T05:34:35;96946.53;;;11.51;88.67
61769;BME280;47669;48.712;9.016;2023-09-07T05:37:04;96951.59;;;11.59;89.10
61769;BME280;47669;48.712;9.016;2023-09-07T05:39:31;96955.44;;;11.70;88.08
61769;BME280;47669;48.712;9.016;2023-09-07T05:41:57;96956.69;;;11.68;88.53
61769;BME280;47669;48.712;9.016;2023-09-07T05:44:22;96955.69;;;11.55;89.40
61769;BME280;47669;48.712;9.016;2023-09-07T05:46:50;96956.91;;;11.53;89.14
61769;BME280;47669;48.712;9.016;2023-09-07T05:49:15;96948.50;;;11.82;88.33
61769;BME280;47669;48.712;9.016;2023-09-07T05:51:40;96951.69;;;12.11;87.24
61769;BME280;47669;48.712;9.016;2023-09-07T05:54:11;96954.47;;;12.23;86.85
61769;BME280;47669;48.712;9.016;2023-09-07T05:56:43;96959.41;;;12.19;86.96
61769;BME280;47669;48.712;9.016;2023-09-07T05:59:08;96962.47;;;12.55;86.83
61769;BME280;47669;48.712;9.016;2023-09-07T06:01:33;96960.13;;;12.40;86.98
61769;BME280;47669;48.712;9.016;2023-09-07T06:03:58;96963.19;;;12.75;85.51
61769;BME280;47669;48.712;9.016;2023-09-07T06:06:24;96960.41;;;12.95;84.69
61769;BME280;47669;48.712;9.016;2023-09-07T06:08:49;96953.03;;;13.22;84.44
61769;BME280;47669;48.712;9.016;2023-09-07T06:11:15;96960.53;;;13.32;85.15
61769;BME280;47669;48.712;9.016;2023-09-07T06:13:41;96963.25;;;13.51;84.22
61769;BME280;47669;48.712;9.016;2023-09-07T06:16:06;96954.56;;;13.62;83.24
61769;BME280;47669;48.712;9.016;2023-09-07T06:18:31;96957.59;;;13.66;83.26
61769;BME280;47669;48.712;9.016;2023-09-07T06:20:57;96955.00;;;13.77;82.98
61769;BME280;47669;48.712;9.016;2023-09-07T06:23:22;96949.56;;;13.91;82.54
61769;BME280;47669;48.712;9.016;2023-09-07T06:25:47;96945.06;;;14.10;81.79
61769;BME280;47669;48.712;9.016;2023-09-07T06:28:12;96950.28;;;14.16;82.04
61769;BME280;47669;48.712;9.016;2023-09-07T06:30:38;96950.66;;;14.50;80.88
61769;BME280;47669;48.712;9.016;2023-09-07T06:33:04;96953.84;;;14.59;81.00
61769;BME280;47669;48.712;9.016;2023-09-07T06:35:29;96953.84;;;14.59;81.22
61769;BME280;47669;48.712;9.016;2023-09-07T06:37:54;96952.53;;;14.80;80.40
61769;BME280;47669;48.712;9.016;2023-09-07T06:40:21;96947.50;;;15.14;79.29
61769;BME280;47669;48.712;9.016;2023-09-07T06:42:46;96952.13;;;15.30;79.04
61769;BME280;47669;48.712;9.016;2023-09-07T06:45:11;96954.47;;;15.26;79.48
61769;BME280;47669;48.712;9.016;2023-09-07T06:47:37;96955.03;;;15.40;79.14
61769;BME280;47669;48.712;9.016;2023-09-07T06:50:02;96962.31;;;15.10;79.38
61769;BME280;47669;48.712;9.016;2023-09-07T06:52:27;96958.75;;;15.39;79.67
61769;BME280;47669;48.712;9.016;2023-09-07T06:54:53;96957.59;;;15.71;77.97
61769;BME280;47669;48.712;9.016;2023-09-07T06:57:19;96956.31;;;15.97;78.04
61769;BME280;47669;48.712;9.016;2023-09-07T06:59:44;96960.44;;;16.28;76.25
61769;BME280;47669;48.712;9.016;2023-09-07T07:02:10;96963.28;;;16.38;75.93
61769;BME280;47669;48.712;9.016;2023-09-07T07:04:35;96967.63;;;16.56;75.31
61769;BME280;47669;48.712;9.016;2023-09-07T07:07:01;96965.28;;;16.31;76.00
61769;BME280;47669;48.712;9.016;2023-09-07T07:09:30;96972.00;;;16.62;76.20
61769;BME280;47669;48.712;9.016;2023-09-07T07:11:55;96967.41;;;16.86;74.82
61769;BME280;47669;48.712;9.016;2023-09-07T07:14:20;96975.03;;;16.66;76.67
61769;BME280;47669;48.712;9.016;2023-09-07T07:16:46;96966.78;;;17.13;75.55
61769;BME280;47669;48.712;9.016;2023-09-07T07:19:11;96968.16;;;17.33;74.75
61769;BME280;47669;48.712;9.016;2023-09-07T07:21:36;96976.16;;;17.49;74.32
61769;BME280;47669;48.712;9.016;2023-09-07T07:24:01;96970.41;;;17.75;73.22
61769;BME280;47669;48.712;9.016;2023-09-07T07:26:27;96974.38;;;17.72;74.08
61769;BME280;47669;48.712;9.016;2023-09-07T07:28:52;96975.91;;;17.68;73.92
61769;BME280;47669;48.712;9.016;2023-09-07T07:31:17;96976.78;;;17.90;73.95
61769;BME280;47669;48.712;9.016;2023-09-07T07:33:42;96965.06;;;18.14;72.84
61769;BME280;47669;48.712;9.016;2023-09-07T07:36:08;96963.38;;;18.07;72.56
61769;BME280;47669;48.712;9.016;2023-09-07T07:38:34;96964.75;;;18.10;72.06
61769;BME280;47669;48.712;9.016;2023-09-07T07:41:00;96964.06;;;18.42;70.46
61769;BME280;47669;48.712;9.016;2023-09-07T07:43:25;96973.69;;;18.65;70.29
61769;BME280;47669;48.712;9.016;2023-09-07T07:45:53;96958.25;;;18.77;69.44
61769;BME280;47669;48.712;9.016;2023-09-07T07:48:18;96969.31;;;18.81;70.10
61769;BME280;47669;48.712;9.016;2023-09-07T07:50:44;96963.47;;;18.62;71.82
61769;BME280;47669;48.712;9.016;2023-09-07T07:53:10;96962.47;;;18.68;71.50
61769;BME280;47669;48.712;9.016;2023-09-07T07:55:38;96958.16;;;18.89;71.80
61769;BME280;47669;48.712;9.016;2023-09-07T07:58:08;96962.03;;;19.03;69.43
61769;BME280;47669;48.712;9.016;2023-09-07T08:00:37;96952.84;;;19.26;68.44
61769;BME280;47669;48.712;9.016;2023-09-07T08:03:03;96946.66;;;19.58;68.88
61769;BME280;47669;48.712;9.016;2023-09-07T08:05:31;96958.09;;;19.86;67.62
61769;BME280;47669;48.712;9.016;2023-09-07T08:07:56;96953.91;;;19.63;69.36
61769;BME280;47669;48.712;9.016;2023-09-07T08:10:22;96951.72;;;19.60;69.61
61769;BME280;47669;48.712;9.016;2023-09-07T08:12:47;96949.22;;;19.85;66.81
61769;BME280;47669;48.712;9.016;2023-09-07T08:15:12;96941.09;;;20.18;67.36
61769;BME280;47669;48.712;9.016;2023-09-07T08:17:39;96941.16;;;20.38;69.46
61769;BME280;47669;48.712;9.016;2023-09-07T08:20:05;96940.63;;;20.46;66.06
61769;BME280;47669;48.712;9.016;2023-09-07T08:22:32;96947.25;;;20.23;66.86
61769;BME280;47669;48.712;9.016;2023-09-07T08:25:00;96937.44;;;20.49;64.38
61769;BME280;47669;48.712;9.016;2023-09-07T08:27:25;96941.75;;;20.56;65.52
61769;BME280;47669;48.712;9.016;2023-09-07T08:29:51;96945.00;;;20.68;64.82
61769;BME280;47669;48.712;9.016;2023-09-07T08:32:17;96946.28;;;20.55;64.91
61769;BME280;47669;48.712;9.016;2023-09-07T08:34:44;96948.78;;;20.67;65.00
61769;BME280;47669;48.712;9.016;2023-09-07T08:37:09;96950.69;;;20.97;63.51
61769;BME280;47669;48.712;9.016;2023-09-07T08:39:35;96955.28;;;21.02;66.30
61769;BME280;47669;48.712;9.016;2023-09-07T08:42:01;96946.69;;;20.94;63.36
61769;BME280;47669;48.712;9.016;2023-09-07T08:44:28;96955.00;;;21.19;63.20
61769;BME280;47669;48.712;9.016;2023-09-07T08:46:55;96952.09;;;21.25;62.86
61769;BME280;47669;48.712;9.016;2023-09-07T08:49:20;96951.53;;;21.18;62.41
61769;BME280;47669;48.712;9.016;2023-09-07T08:51:48;96953.41;;;21.38;62.92
61769;BME280;47669;48.712;9.016;2023-09-07T08:54:14;96953.69;;;21.31;63.26
61769;BME280;47669;48.712;9.016;2023-09-07T08:56:40;96946.16;;;21.44;62.60
61769;BME280;47669;48.712;9.016;2023-09-07T08:59:05;96947.50;;;21.51;63.25
61769;BME280;47669;48.712;9.016;2023-09-07T09:01:31;96959.03;;;21.67;63.07
61769;BME280;47669;48.712;9.016;2023-09-07T09:03:57;96958.16;;;22.03;61.17
61769;BME280;47669;48.712;9.016;2023-09-07T09:06:23;96952.25;;;22.06;64.54
61769;BME280;47669;48.712;9.016;2023-09-07T09:08:56;96952.59;;;21.68;64.36
61769;BME280;47669;48.712;9.016;2023-09-07T09:11:23;96956.91;;;21.44;61.71
61769;BME280;47669;48.712;9.016;2023-09-07T09:13:50;96957.69;;;21.19;63.05
61769;BME280;47669;48.712;9.016;2023-09-07T09:16:16;96955.72;;;22.06;62.08
61769;BME280;47669;48.712;9.016;2023-09-07T09:18:49;96952.03;;;22.57;62.07
61769;BME280;47669;48.712;9.016;2023-09-07T09:21:20;96942.31;;;22.61;60.44
61769;BME280;47669;48.712;9.016;2023-09-07T09:23:48;96944.50;;;22.54;61.84
61769;BME280;47669;48.712;9.016;2023-09-07T09:26:18;96950.09;;;22.68;60.94
61769;BME280;47669;48.712;9.016;2023-09-07T09:28:43;96945.50;;;22.68;60.94
61769;BME280;47669;48.712;9.016;2023-09-07T09:31:13;96944.13;;;22.71;58.84
61769;BME280;47669;48.712;9.016;2023-09-07T09:33:39;96938.31;;;21.83;61.00
61769;BME280;47669;48.712;9.016;2023-09-07T09:36:06;96937.72;;;21.96;63.83
61769;BME280;47669;48.712;9.016;2023-09-07T09:38:32;96940.00;;;22.84;61.96
61769;BME280;47669;48.712;9.016;2023-09-07T09:40:58;96932.34;;;23.06;62.57
61769;BME280;47669;48.712;9.016;2023-09-07T09:43:24;96942.53;;;22.70;60.35
61769;BME280;47669;48.712;9.016;2023-09-07T09:45:50;96930.44;;;23.12;60.30
61769;BME280;47669;48.712;9.016;2023-09-07T09:48:18;96930.47;;;23.36;60.97
61769;BME280;47669;48.712;9.016;2023-09-07T09:50:46;96932.66;;;23.00;58.99
61769;BME280;47669;48.712;9.016;2023-09-07T09:53:14;96928.66;;;22.92;58.79
61769;BME280;47669;48.712;9.016;2023-09-07T09:55:44;96927.41;;;23.48;60.32
61769;BME280;47669;48.712;9.016;2023-09-07T09:58:09;96924.28;;;23.65;60.68
61769;BME280;47669;48.712;9.016;2023-09-07T10:00:35;96925.22;;;23.79;59.01
61769;BME280;47669;48.712;9.016;2023-09-07T10:03:10;96931.78;;;23.97;60.28
61769;BME280;47669;48.712;9.016;2023-09-07T10:05:39;96926.72;;;24.14;59.97
61769;BME280;47669;48.712;9.016;2023-09-07T10:08:15;96932.25;;;24.28;61.00
61769;BME280;47669;48.712;9.016;2023-09-07T10:10:41;96927.00;;;24.13;58.79
61769;BME280;47669;48.712;9.016;2023-09-07T10:13:07;96923.09;;;24.00;59.01
61769;BME280;47669;48.712;9.016;2023-09-07T10:15:33;96928.13;;;24.12;59.52
61769;BME280;47669;48.712;9.016;2023-09-07T10:18:13;96923.81;;;24.11;57.32
61769;BME280;47669;48.712;9.016;2023-09-07T10:20:58;96922.31;;;24.24;60.60
61769;BME280;47669;48.712;9.016;2023-09-07T10:23:40;96920.63;;;24.47;56.64
61769;BME280;47669;48.712;9.016;2023-09-07T10:26:11;96922.91;;;24.39;59.19
61769;BME280;47669;48.712;9.016;2023-09-07T10:28:37;96919.38;;;24.82;58.64
61769;BME280;47669;48.712;9.016;2023-09-07T10:31:15;96920.63;;;24.47;59.12
61769;BME280;47669;48.712;9.016;2023-09-07T10:33:41;96911.75;;;25.03;57.75
61769;BME280;47669;48.712;9.016;2023-09-07T10:36:06;96906.28;;;25.08;54.47
61769;BME280;47669;48.712;9.016;2023-09-07T10:38:33;96906.44;;;24.79;57.74
61769;BME280;47669;48.712;9.016;2023-09-07T10:41:01;96905.97;;;24.91;59.96
61769;BME280;47669;48.712;9.016;2023-09-07T10:43:31;96911.75;;;24.84;53.90
61769;BME280;47669;48.712;9.016;2023-09-07T10:45:58;96901.53;;;25.33;56.04
61769;BME280;47669;48.712;9.016;2023-09-07T10:48:29;96898.34;;;24.79;54.00
61769;BME280;47669;48.712;9.016;2023-09-07T10:50:55;96891.34;;;25.11;53.97
61769;BME280;47669;48.712;9.016;2023-09-07T10:53:29;96890.75;;;25.60;54.59
61769;BME280;47669;48.712;9.016;2023-09-07T10:55:57;96891.56;;;25.61;55.33
61769;BME280;47669;48.712;9.016;2023-09-07T10:58:29;96886.03;;;25.52;54.33
61769;BME280;47669;48.712;9.016;2023-09-07T11:00:55;96887.69;;;25.21;55.32
61769;BME280;47669;48.712;9.016;2023-09-07T11:03:20;96884.41;;;25.98;54.51
61769;BME280;47669;48.712;9.016;2023-09-07T11:05:46;96877.78;;;26.54;53.55
61769;BME280;47669;48.712;9.016;2023-09-07T11:08:11;96874.06;;;26.00;51.07
61769;BME280;47669;48.712;9.016;2023-09-07T11:10:37;96872.97;;;26.51;53.07
61769;BME280;47669;48.712;9.016;2023-09-07T11:13:04;96876.97;;;26.54;50.51
61769;BME280;47669;48.712;9.016;2023-09-07T11:15:31;96883.81;;;26.65;54.19
61769;BME280;47669;48.712;9.016;2023-09-07T11:17:57;96881.59;;;26.90;53.50
61769;BME280;47669;48.712;9.016;2023-09-07T11:20:23;96882.56;;;26.07;50.39
61769;BME280;47669;48.712;9.016;2023-09-07T11:22:50;96872.44;;;25.99;55.27
61769;BME280;47669;48.712;9.016;2023-09-07T11:25:15;96875.06;;;26.91;52.93
61769;BME280;47669;48.712;9.016;2023-09-07T11:27:40;96868.09;;;26.76;57.75
61769;BME280;47669;48.712;9.016;2023-09-07T11:30:06;96872.84;;;26.70;54.12
61769;BME280;47669;48.712;9.016;2023-09-07T11:32:34;96871.91;;;26.75;51.26
61769;BME280;47669;48.712;9.016;2023-09-07T11:34:59;96878.66;;;27.23;52.25
61769;BME280;47669;48.712;9.016;2023-09-07T11:37:25;96865.25;;;27.26;49.63
61769;BME280;47669;48.712;9.016;2023-09-07T11:39:50;96875.28;;;27.48;50.76
61769;BME280;47669;48.712;9.016;2023-09-07T11:42:16;96874.53;;;27.56;51.24
61769;BME280;47669;48.712;9.016;2023-09-07T11:44:41;96874.53;;;27.96;51.07
61769;BME280;47669;48.712;9.016;2023-09-07T11:47:06;96863.97;;;27.01;49.66
61769;BME280;47669;48.712;9.016;2023-09-07T11:49:32;96857.50;;;27.73;50.27
61769;BME280;47669;48.712;9.016;2023-09-07T11:51:58;96870.94;;;27.47;47.59
61769;BME280;47669;48.712;9.016;2023-09-07T11:54:23;96866.56;;;28.09;48.25
61769;BME280;47669;48.712;9.016;2023-09-07T11:56:48;96855.31;;;27.44;48.09
61769;BME280;47669;48.712;9.016;2023-09-07T11:59:14;96854.44;;;27.66;50.25
61769;BME280;47669;48.712;9.016;2023-09-07T12:01:40;96856.84;;;28.25;47.02
61769;BME280;47669;48.712;9.016;2023-09-07T12:04:06;96857.97;;;28.24;47.91
61769;BME280;47669;48.712;9.016;2023-09-07T12:06:32;96852.56;;;28.24;48.24
61769;BME280;47669;48.712;9.016;2023-09-07T12:09:00;96855.03;;;27.86;47.93
61769;BME280;47669;48.712;9.016;2023-09-07T12:11:26;96846.63;;;28.31;48.94
61769;BME280;47669;48.712;9.016;2023-09-07T12:13:52;96849.25;;;28.53;47.94
61769;BME280;47669;48.712;9.016;2023-09-07T12:16:17;96849.25;;;28.53;45.56
61769;BME280;47669;48.712;9.016;2023-09-07T12:18:42;96850.34;;;29.13;48.16
61769;BME280;47669;48.712;9.016;2023-09-07T12:21:07;96841.19;;;29.09;47.30
61769;BME280;47669;48.712;9.016;2023-09-07T12:23:33;96839.09;;;29.06;42.52
61769;BME280;47669;48.712;9.016;2023-09-07T12:25:58;96837.41;;;28.58;43.85
61769;BME280;47669;48.712;9.016;2023-09-07T12:28:25;96841.84;;;28.97;44.61
61769;BME280;47669;48.712;9.016;2023-09-07T12:30:51;96844.56;;;29.23;43.84
61769;BME280;47669;48.712;9.016;2023-09-07T12:33:16;96845.06;;;28.82;43.34
61769;BME280;47669;48.712;9.016;2023-09-07T12:35:41;96841.50;;;29.08;46.30
61769;BME280;47669;48.712;9.016;2023-09-07T12:38:06;96840.09;;;29.10;43.94
61769;BME280;47669;48.712;9.016;2023-09-07T12:40:34;96837.72;;;29.56;42.12
61769;BME280;47669;48.712;9.016;2023-09-07T12:42:59;96843.66;;;30.17;46.16
61769;BME280;47669;48.712;9.016;2023-09-07T12:45:24;96838.69;;;30.19;43.35
61769;BME280;47669;48.712;9.016;2023-09-07T12:47:50;96843.50;;;30.14;41.39
61769;BME280;47669;48.712;9.016;2023-09-07T12:50:15;96842.59;;;29.33;43.85
61769;BME280;47669;48.712;9.016;2023-09-07T12:52:40;96838.75;;;30.11;41.19
61769;BME280;47669;48.712;9.016;2023-09-07T12:55:06;96842.09;;;30.37;41.34